MDT,Max TemperatureF,Mean TemperatureF,Min TemperatureF,Max Dew PointF,MeanDew PointF,Min DewpointF,Max Humidity, Mean Humidity, Min Humidity, Max Sea Level PressureIn, Mean Sea Level PressureIn, Min Sea Level PressureIn, Max VisibilityMiles, Mean VisibilityMiles, Min VisibilityMiles, Max Wind SpeedMPH, Mean Wind SpeedMPH, Max Gust SpeedMPH,PrecipitationIn, CloudCover, Events, WindDirDegrees
2013-4-1,51,36,21,28,23,19,92,63,33,30.29,30.22,30.17,10,10,8,14,6,20,0.00,2,,135
2013-4-2,57,39,20,25,21,16,84,56,27,30.22,30.17,30.12,10,10,10,16,5,23,0.00,0,,123
2013-4-3,72,50,28,34,27,21,75,46,16,30.16,30.02,29.93,10,10,10,31,13,37,0.00,1,,60
2013-4-4,54,41,27,26,22,18,85,57,28,30.20,30.13,30.05,10,10,10,16,8,21,0.00,1,,111
2013-4-5,60,46,32,41,28,18,71,52,32,30.01,29.75,29.59,10,10,10,29,10,37,T,3,Rain,52
2013-4-6,68,54,39,41,32,28,92,58,24,29.80,29.75,29.70,10,10,10,31,13,41,0.01,4,,332
2013-4-7,59,48,37,41,36,29,83,63,43,29.76,29.67,29.59,10,10,6,17,5,23,0.02,4,Rain,56
2013-4-8,46,31,15,40,26,12,96,86,75,30.25,29.90,29.61,10,4,0,38,19,47,0.20,7,Fog-Rain-Snow,357
2013-4-9,17,14,11,13,10,8,88,84,80,30.49,30.32,30.11,1,0,0,37,27,43,1.21,8,Fog-Snow,343
2013-4-10,25,21,16,19,16,11,92,80,68,30.40,30.22,30.05,10,4,0,26,16,32,0.25,8,Fog-Snow,342
2013-4-11,32,22,11,29,18,8,85,79,73,30.03,29.92,29.79,10,10,9,22,13,25,T,6,Snow,338
2013-4-12,37,28,19,32,27,19,100,82,64,30.05,29.97,29.83,10,10,5,31,9,37,T,6,Rain-Snow,334
2013-4-13,39,28,16,34,25,16,100,88,75,30.01,29.67,29.39,10,5,0,18,10,22,0.00,3,Fog,112
2013-4-14,37,29,21,32,25,16,100,84,68,29.87,29.57,29.37,10,7,0,41,25,51,T,6,Fog-Snow,342
2013-4-15,34,27,19,21,17,12,75,63,51,30.18,30.02,29.86,10,10,10,33,20,39,0.00,4,,339
2013-4-16,31,26,21,27,23,17,92,83,74,30.35,30.22,30.14,10,3,0,14,7,37,0.23,7,Fog-Snow,35
2013-4-17,28,27,25,25,24,21,92,85,78,30.33,30.21,30.14,10,2,0,25,13,30,0.22,8,Fog-Snow,1
2013-4-18,34,27,19,23,19,13,92,74,56,30.25,30.18,30.09,10,8,2,30,18,36,T,5,Snow,343
2013-4-19,38,32,25,31,29,18,89,79,68,30.11,30.01,29.92,10,6,1,28,10,32,0.06,8,Snow,353
2013-4-20,53,41,29,39,31,25,89,72,54,30.03,29.96,29.90,10,10,10,26,7,36,0.03,7,Rain,124
2013-4-21,49,40,31,40,34,30,92,80,67,30.17,30.08,29.93,10,8,1,31,12,37,0.26,7,Rain-Snow,22
2013-4-22,31,23,15,30,22,11,100,84,68,30.50,30.31,30.09,10,4,0,25,16,30,0.26,7,Fog-Snow,14
2013-4-23,36,24,12,21,15,7,80,62,43,30.48,30.33,30.17,10,10,10,12,5,16,0.00,0,,249
2013-4-24,45,34,22,29,23,16,74,58,41,30.19,30.16,30.11,10,10,9,35,14,43,T,2,Snow,314
2013-4-25,69,48,27,31,25,15,85,49,12,30.14,29.94,29.80,10,10,10,17,8,22,0.00,0,,107
2013-4-26,71,54,36,33,28,25,59,39,19,30.12,30.07,29.95,10,10,10,14,6,17,0.00,0,,259
2013-4-27,79,58,37,35,31,24,70,42,13,30.08,29.92,29.77,10,10,10,20,7,28,0.00,0,,321
2013-4-28,71,58,45,44,35,30,93,60,27,29.94,29.83,29.70,10,10,10,32,17,43,0.02,3,Rain,331
2013-4-29,75,58,41,43,38,30,96,58,19,29.86,29.59,29.32,10,10,10,53,18,63,0.00,1,,196
2013-4-30,55,44,33,36,25,21,70,50,29,30.20,29.88,29.60,10,10,10,36,18,47,T,6,Rain,342